Aviation Digital Data Service (ADDS)

Output produced by METARs form (0206 UTC 16 January 2019)
found at http://www.aviationweather.gov/metar/data/
 
TAF MMCS 151727Z 1518/1618 23010KT P6SM SCT250 
     FM160600 00000KT P6SM BKN200
       
TAF MMBT 151638Z 1518/1618 23010KT P6SM SKC 
     BECMG 1601/1602 00000KT 
     FM161600 20010KT P6SM SKC
       
TAF AMD MMVA 160156Z 1602/1618 00000KT 6SM HZ SCT015 BKN070 
     TEMPO 1602/1606 2SM -DZ BR BKN010 OVC040 
     FM160800 00000KT 2SM -DZ BR BKN008 OVC020 
     TEMPO 1610/1614 1SM -DZ BR OVC006
       
TAF MMUN 152333Z 1600/1706 03005KT P6SM SCT015 BKN080 TX25/1620Z TN22/1612Z 
     FM160600 02005KT P6SM SKC 
     FM161200 02005KT P6SM SCT015 BKN080 
     FM161800 02010KT P6SM SCT020 SCT080 
     FM170300 02005KT P6SM SCT015
       
TAF MMCM 151724Z 1518/1618 34015KT P6SM SCT015 OVC080 
     FM160300 02010KT P6SM OVC010 
     TEMPO 1609/1613 4SM RA 
     FM161600 34010KT 4SM HZ OVC010 OVC040
       
TAF AMD MMCE 152153Z 1522/1618 01010KT P6SM SCT020 SCT070 SCT280 
     TEMPO 1522/1602 BKN020 
     FM160200 03015KT 5SM HZ BKN040 BKN280 
     FM161700 13005KT 5SM HZ BKN020 OVC250
       
TAF MMCN 151714Z 1518/1618 13010KT P6SM BKN020 BKN060 
     FM160200 00000KT 5SM HZ SCT010 
     TEMPO 1610/1614 BKN010 
     FM161600 02010KT 5SM HZ SCT250
       
TAF COR MMCV 160157Z 1600/1618 00000KT 1SM -DZ BR OVC003 
     BECMG 1606/1607 1/2SM FG VV003 
     FM161500 33005KT 3SM BR BKN005 OVC010
       
TAF MMCZ 152333Z 1600/1706 04005KT P6SM SCT015 BKN100 
     FM160300 02008KT P6SM SCT015 
     FM161600 02015KT P6SM SCT020 BKN250 
     TEMPO 1621/1701 BKN018
       
TAF AMD MMCB 160141Z 1602/1618 30005KT P6SM SCT200 
     FM160600 00000KT 5SM HZ BKN020 
     FM161600 03005KT 4SM HZ BKN015
       
TAF MMCL 151659Z 1518/1618 20010KT P6SM SCT030 BKN250 
     FM160300 34005KT P6SM BKN100 BKN250
       
TAF AMD MMLO 160100Z 1601/1618 00000KT P6SM SCT090 BKN220 
     FM160600 00000KT 5SM HZ SCT090 SCT220 
     FM161600 22010KT 6SM HZ SCT030 BKN220
       
TAF AMD MMAN 152021Z 1520/1618 00000KT 5SM HZ BKN010 OVC013 
     TEMPO 1521/1601 3SM DZ BR BKN006 
     FM160100 00000KT 3SM DZ BR OVC003 
     TEMPO 1610/1614 1SM DZ VV003 
     FM161400 03005KT 4SM HZ SCT008 BKN015 OVC060
       
TAF MMGL 152314Z 1600/1706 05005KT 4SM HZ BKN300 TX21/1621Z TN12/1612Z 
     BECMG 1603/1604 00000KT 
     TEMPO 1610/1614 2SM BR 
     FM161400 24005KT 5SM HZ SCT100 BKN250 
     BECMG 1703/1704 18005KT
       
TAF MMDO 151714Z 1518/1618 22010KT P6SM BKN020 OVC050 
     TEMPO 1522/1602 BKN015 
     FM160400 23010KT P6SM SCT100 BKN230 
     FM161600 24010KT P6SM SCT250
       
TAF MMTG 151705Z 1518/1618 30010KT P6SM SCT025 BKN080 
     TEMPO 1520/1524 5SM RA BKN020 
     FM160100 00000KT P6SM BKN080 
     TEMPO 1612/1616 2SM BR BKN010
       
TAF COR MMTJ 160134Z 1600/1706 15010KT P6SM SCT020 BKN080 OVC200 TX14/1621Z
TN11/1612Z 
     TEMPO 1600/1604 5SM RA BKN015 OVC070 
     FM160500 20010KT 5SM -RA BKN020 OVC070 
     TEMPO 1606/1610 3SM -RA OVC008 
     FM161200 00000KT 6SM -RA BKN015 OVC040 
     PROB40 1619/1622 4SM RA 
     FM170300 08005KT 6SM HZ BKN015
       
TAF MMMM 152314Z 1600/1706 00000KT 6SM HZ SCT030 BKN200 
     TEMPO 1610/1614 BKN020 
     FM161400 19010KT P6SM SCT030 BKN250 
     BECMG 1702/1703 18005KT
       
TAF AMD MMTM 160155Z 1602/1618 00000KT 6SM HZ SCT012 OVC200 
     BECMG 1605/1606 3SM -DZ BR OVC007 
     TEMPO 1610/1614 1SM BR VV005 
     FM161400 13015KT 5SM HZ BKN015 OVC100
       
TAF MMVR 151630Z 1518/1618 34015KT P6SM BKN020 TX26/1520Z TN20/1612Z 
     FM152000 34015KT P6SM SCT020 BKN080 
     FM160300 00000KT 5SM HZ BKN015 
     FM160600 00000KT 5SM HZ OVC015 
     TEMPO 1612/1616 2SM DZ
       
TAF MMHO 151659Z 1518/1618 20010KT P6SM BKN040 
     FM160000 20010KT P6SM BKN080 BKN250
       
TAF MMGM 151714Z 1518/1618 13010KT P6SM SCT010 OVC030 
     TEMPO 1518/1522 BKN010 
     FM160200 32010KT P6SM BKN240 
     FM161500 32010KT P6SM SCT250
       
TAF MMAA 152301Z 1600/1706 18005KT P6SM BKN250 TX31/1618Z TN22/1612Z 
     BECMG 1605/1606 06005KT 
     FM161800 24010KT P6SM BKN250 
     BECMG 1703/1704 26005KT
       
TAF MMZC 152314Z 1600/1706 18010KT P6SM SCT030 BKN100 TX18/1620Z TN10/1612Z 
     BECMG 1605/1606 24010KT 
     FM161700 24010KT P6SM SCT100 BKN250 
     BECMG 1703/1704 26005KT
       
TAF AMD MMRX 152217Z 1522/1618 00000KT 1SM -RA BR OVC006 
     TEMPO 1600/1604 1/2SM DZ FG VV003 
     FM160500 120005KT 3SM BR HZ BKN010 BKN040 
     TEMPO 1610/1614 1SM BR 
     FM161600 13010KT 4SM HZ OVC040
       
TAF MMLP 151659Z 1518/1618 34010KT P6SM SCT015 BKN200 
     FM160300 20010KT P6SM BKN120 BKN250
       
TAF MMMY 152319Z 1600/1706 04005KT 4SM HZ VC -RA BKN008 OVC010 TX11/1621Z
TN08/1612Z 
     TEMPO 1600/1604 2SM -RA BR OVC004 
     FM160600 07005KT 2SM -DZ BR BKN003 OVC005 
     FM161000 00000KT 1SM -DZ BR OVC004 
     TEMPO 1611/1615 1/2SM FG VV003 
     FM161600 04005KT 2SM BR BKN003 OVC005 
     BECMG 1618/1619 4SM HZ BKN010 OVC070 
     FM170300 04005KT 4SM HZ BKN010 BKN070
       
TAF MMCU 151727Z 1518/1618 20010KT P6SM BKN080 BKN200 
     FM160300 00000KT P6SM BKN250
       
TAF MMMZ 152327Z 1600/1706 26005KT P6SM SCT040 BKN100 TX29/1621Z TN20/1612Z 
     FM160600 32005KT P6SM SCT080 BKN200 
     FM161200 06005KT P6SM BKN250 
     FM161800 22010KT P6SM SCT080 BKN250 
     FM170300 04005KT P6SM SCT030 BKN250
       
TAF AMD MMML 160021Z 1600/1618 05005KT P6SM SCT020 
     BECMG 1606/1607 3SM BR BKN020 
     FM161500 05010KT P6SM SCT020
       
TAF AMD MMMA 160023Z 1600/1618 29006KT 1/2SM -DZ FG OVC003 
     FM161500 30005KT 3SM DZ BR BKN010 OVC040
       
TAF MMPB 151638Z 1518/1618 12010KT P6SM SCT020 
     TEMPO 1523/1603 BKN015 
     FM160600 00000KT 3SM HZ BKN010 
     FM161700 05010KT 4SM HZ SCT010 BKN050
       
TAF MMCP 151724Z 1518/1618 02015KT P6SM BKN020 
     BECMG 1603/1604 00000KT 
     FM161000 00000KT 3SM HZ SCT010 SCT020 
     FM161600 04010KT 5SM HZ BKN030
       
TAF MMQT 151656Z 1518/1618 110010KT P6SM BKN020 BKN100 
     BECMG 1602/1603 00000KT 
     FM161000 00000KT 1SM BR OVC005 
     FM161600 20010KT 4SM HZ SCT020 BKN250
       
TAF MMZH 151638Z 1518/1618 24010KT P6SM SCT030 SCT100 
     BECMG 1602/1603 00000KT 
     FM161500 22010KT P6SM SCT230
       
TAF AMD MMAS 152212Z 1522/1618 21005KT P6SM SCT050 BKN100 
     TEMPO 1522/1602 4SM -RA BKN040 BKN100 
     FM160300 22005KT 6SM HZ OVC020 
     TEMPO 1612/1615 2SM -DZ BR OVC006 
     FM161600 24010KT 3SM HZ BKN020 BKN090
       
TAF MMTO 152301Z 1600/1706 05010KT 4SM HZ FU BKN015 TX19/1621Z TN04/1612Z 
     FM160600 06005KT 3SM BR BKN015 
     TEMPO 1610/1614 1SM BR VV006 
     FM161400 05005KT 4SM HZ SCT015 
     FM162100 13010KT 5SM HZ BKN015 BKN250 
     BECMG 1703/1704 13005KT
       
TAF MMMX 152301Z 1600/1706 06005KT 6SM HZ SCT020 SCT080 TX20/1621Z TN12/1612Z 
     BECMG 1605/1606 3SM HZ 
     TEMPO 1610/1614 1SM BR 
     FM161400 00000KT 4SM HZ BKN250 
     FM162000 06010KT 5SM HZ BKN250 
     BECMG 1703/1704 06005KT
       
TAF MMPR 152314Z 1600/1706 23010KT P6SM SCT130 BKN250 TX28/1622Z TN20/1612Z 
     BECMG 1605/1606 05005KT 
     FM161700 34010KT P6SM SCT020 BKN250 
     TEMPO 1623/1703 4SM -TSRA BKN015CB 
     FM170300 34005KT 6SM -RA SCT030CB BKN100 BKN250
       
TAF MMMD 152333Z 1600/1706 36008KT P6SM SKC TX28/1621Z TN21/1612Z 
     FM160600 34005KT P6SM SCT020 
     FM161000 00000KT 3SM BR BKN010 
     TEMPO 1611/1615 1/2SM FG VV003 
     FM161600 04005KT P6SM SCT015 
     BECMG 1617/1618 SKC 
     FM170300 04005KT P6SM SCT020
       
TAF AMD MMPN 160104Z 1601/1618 07005KT P6SM SCT025 SCT080 
     TEMPO 1601/1604 5SM RA BKN020CB 
     FM160600 00000KT 5SM HZ SCT020 BKN080 
     TEMPO 1610/1614 3SM HZ BKN010
       
TAF MMLT 151714Z 1518/1618 13010KT P6SM BKN025 BKN050 
     FM160500 02010KT 3SM HZ OVC010 
     FM161600 05010KT 4SM HZ SCT010 BKN030
       
TAF MMSD 151714Z 1518/1618 03010KT P6SM BKN020 BKN240 
     BECMG 1602/1603 00000KT 
     FM160600 00000KT P6SM SCT240 
     FM161500 34010KT P6SM SCT230
       
TAF AMD MMMT 160149Z 1602/1618 36010KT P6SM OVC020 
     TEMPO 1602/1605 3SM -RA OVC010 
     FM160600 02010KT 4SM HZ BKN010 OVC025 
     TEMPO 1612/1615 1SM -DZ BR OVC005
       
TAF AMD MMMV 152123Z 1521/1618 04005KT 3SM DZ BR BKN006 OVC012 
     TEMPO 1523/1603 2SM DZ BR OVC006 
     FM160300 17005KT 3SM BR BKN003 OVC010 
     TEMPO 1610/1614 1SM BR VV005 
     FM161400 04010KT P6SM SCT015 BKN250
       
TAF MMPG 151733Z 1518/1618 02010KT 2SM BR BKN003 OVC015 
     TEMPO 1518/1522 1SM DZ 
     FM160300 10010KT 3SM HZ OVC010 
     TEMPO 1610/1614 1SM BR OVC004 
     FM161600 12010KT 3SM HZ OVC015
       
TAF AMD MMIO 152116Z 1521/1618 04005KT 2 1/2SM BR OVC015 
     TEMPO 1523/1603 1SM BR VV007 
     FM160300 00000KT 1SM BR VV005 
     TEMPO 1610/1614 1/2SM FG VV005 
     FM161400 34005KT 5SM HZ SCT005 BKN040 BKN250
       
TAF MMZO 151646Z 1518/1618 24010KT P6SM SCT025 BKN250 
     FM160300 00000KT P6SM BKN250
       
TAF MMSP 152314Z 1600/1706 02005KT P6SM SCT030 BKN080 OVC250 TX19/1621Z
TN06/1612Z 
     FM160600 07005KT 3SM BR BKN030 OVC070 
     TEMPO 1610/1614 1SM BR VV005 
     FM161400 10005KT 4SM BR HZ SCT020 BKN080 BKN250 
     FM161700 09010KT P6SM BKN020 BKN250 
     PROB40 1623/1703 4SM -RA 
     FM170300 09010KT P6SM SCT020 BKN250
       
TAF MMPS 151638Z 1518/1618 25010KT P6SM SKC 
     BECMG 1602/1603 00000KT 
     FM161500 29010KT P6SM SKC
       
TAF MMNL 151733Z 1518/1618 08010KT 2SM BR BKN003 OVC010 
     TEMPO 1518/1522 1/2SM DZ BR BKN002 
     FM160600 120010KT 3SM BR OVC015 
     FM161500 02010KT 3SM HZ SCT010 OVC020
       
TAF MMTP 152333Z 1600/1706 22005KT P6SM SCT080 
     FM160600 00000KT P6SM SCT080 
     FM161800 22008KT P6SM SCT030 
     FM170300 24005KT P6SM SCT080
       
TAF AMD MMEP 152214Z 1522/1618 02005KT P6SM SCT030 BKN250 
     FM160200 24010KT P6SM SCT020 BKN080 BKN250 
     TEMPO 1610/1614 3SM BR BKN020 
     FM161600 24010KT P6SM SCT080 BKN250
       
TAF AMD MMTC 160005Z 1600/1618 00000KT 3SM HZ BKN015 BKN030 OVC100 
     BECMG 1604/1605 2SM BR 
     FM161400 00000KT 4SM HZ SCT015 SCT030
       
TAF MMLM 151714Z 1518/1618 32010KT P6SM SCT020 BKN230 
     FM152200 32010KT P6SM BKN015 
     TEMPO 1612/1615 1SM BR BKN005 
     FM161600 32010KT 3SM HZ SCT010
       
TAF AMD MMOX 160052Z 1601/1618 09010KT P6SM SCT120 
     FM160300 04005KT 6SM HZ SCT020 SCT120 
     FM161000 00000KT 4SM HZ BKN020 
     FM161500 06010KT 5SM HZ SCT020